59M weather

Torchport Airport
Eastport, Michigan, United States

Public forecast

Using degrees Fahrenheit for public forecast. Weather courtesy of forecast.io.

Closest aviation weather report (METAR) to Torchport Airport

Closest report is Antrim County Airport, 7.8 nm (14.5 km) ESE. Retrieved 2019/10/21 01:38 UTC (0 seconds ago):

KACB 210138Z AUTO 00000KT 7SM CLR 06/06 A2999 RMK AO2 T00620055

Closest aviation forecast (TAF) to Torchport Airport

Closest forecast is Cherry Capital Airport, 21.2 nm (39.2 km) SSW. Retrieved 2019-10-21 00:28 UTC (59 minutes ago):

TAF KTVC 202325Z 2100/2124 VRB03KT P6SM FEW200 FM211000 12007KT P6SM BKN180 WS010/14030KT FM211500 12010G25KT P6SM VCSH OVC080 FM211700 12013G32KT P6SM VCSH OVC040 FM211900 13015G37KT 6SM -SHRA OVC029 WS020/14050KT